createdAt,value
2023-08-08T00:00:23.085Z,101048.63
2023-08-08T00:03:28.582Z,101041.53
2023-08-08T00:06:32.353Z,101046.13
2023-08-08T00:09:36.314Z,101045.75
2023-08-08T00:12:40.025Z,101049.34
2023-08-08T00:15:44.353Z,101049.47
2023-08-08T00:18:50.990Z,101053.00
2023-08-08T00:21:54.729Z,101053.91
2023-08-08T00:24:58.615Z,101045.81
2023-08-08T00:28:02.320Z,101043.38
2023-08-08T00:31:06.169Z,101047.94
2023-08-08T00:34:11.135Z,101036.50
2023-08-08T00:37:14.740Z,101039.19
2023-08-08T00:40:18.649Z,101042.88
2023-08-08T00:43:22.444Z,101030.63
2023-08-08T00:46:26.417Z,101033.19
2023-08-08T00:49:31.495Z,101022.66
2023-08-08T00:52:36.440Z,101028.84
2023-08-08T00:55:40.852Z,101020.94
2023-08-08T00:58:46.731Z,101025.34
2023-08-08T01:01:50.487Z,101023.69
2023-08-08T01:04:55.943Z,101028.84
2023-08-08T01:08:07.153Z,101021.94
2023-08-08T01:11:12.284Z,101022.72
2023-08-08T01:14:17.490Z,101021.75
2023-08-08T01:17:23.592Z,101023.47
2023-08-08T01:20:28.996Z,101017.41
2023-08-08T01:23:45.936Z,101017.41
2023-08-08T01:26:51.706Z,101015.34
2023-08-08T01:29:55.973Z,101002.81
2023-08-08T01:32:59.691Z,101004.47
2023-08-08T01:36:14.843Z,101008.72
2023-08-08T01:39:29.007Z,101002.53
2023-08-08T01:42:35.608Z,101002.41
2023-08-08T01:45:39.882Z,101005.75
2023-08-08T01:48:48.509Z,101006.56
2023-08-08T01:51:53.510Z,100994.94
2023-08-08T01:54:58.141Z,101007.78
2023-08-08T01:58:03.217Z,101008.63
2023-08-08T02:01:06.903Z,101008.63
2023-08-08T02:04:10.653Z,101004.22
2023-08-08T02:07:14.365Z,101009.09
2023-08-08T02:10:18.586Z,101003.97
2023-08-08T02:13:23.769Z,101000.44
2023-08-08T02:16:27.448Z,100998.19
2023-08-08T02:19:31.580Z,100998.31
2023-08-08T02:22:35.527Z,100995.81
2023-08-08T02:25:39.133Z,101003.59
2023-08-08T02:28:44.581Z,100995.66
2023-08-08T02:31:48.220Z,100996.22
2023-08-08T02:34:51.952Z,100992.00
2023-08-08T02:37:55.669Z,100994.56
2023-08-08T02:40:59.497Z,100986.63
2023-08-08T02:44:04.654Z,100983.13
2023-08-08T02:47:08.816Z,100982.94
2023-08-08T02:50:12.775Z,100983.19
2023-08-08T02:53:16.521Z,100986.50
2023-08-08T02:56:20.110Z,100978.59
2023-08-08T02:59:25.307Z,100974.13
2023-08-08T03:02:29.063Z,100981.22
2023-08-08T03:05:32.956Z,100975.97
2023-08-08T03:08:36.524Z,100970.56
2023-08-08T03:11:42.605Z,100967.13
2023-08-08T03:14:49.031Z,100965.44
2023-08-08T03:17:52.722Z,100964.56
2023-08-08T03:20:56.385Z,100952.22
2023-08-08T03:24:00.379Z,100944.38
2023-08-08T03:27:03.964Z,100957.69
2023-08-08T03:30:11.121Z,100947.94
2023-08-08T03:33:14.845Z,100953.06
2023-08-08T03:36:18.606Z,100956.38
2023-08-08T03:39:22.453Z,100952.03
2023-08-08T03:42:26.226Z,100954.78
2023-08-08T03:45:31.571Z,100963.59
2023-08-08T03:48:35.287Z,100972.28
2023-08-08T03:51:38.901Z,100970.03
2023-08-08T03:54:42.494Z,100977.78
2023-08-08T03:57:46.472Z,100973.69
2023-08-08T04:00:51.902Z,100967.34
2023-08-08T04:03:55.551Z,100978.66
2023-08-08T04:06:59.642Z,100975.34
2023-08-08T04:10:03.633Z,100972.66
2023-08-08T04:13:07.271Z,100972.88
2023-08-08T04:16:12.333Z,100974.38
2023-08-08T04:19:15.981Z,100973.28
2023-08-08T04:22:19.862Z,100965.50
2023-08-08T04:25:23.627Z,100969.00
2023-08-08T04:28:27.241Z,100968.16
2023-08-08T04:31:32.269Z,100957.22
2023-08-08T04:34:36.091Z,100966.09
2023-08-08T04:37:40.044Z,100945.84
2023-08-08T04:40:43.693Z,100942.47
2023-08-08T04:43:47.272Z,100936.63
2023-08-08T04:46:52.326Z,100931.00
2023-08-08T04:49:56.527Z,100930.84
2023-08-08T04:53:00.226Z,100928.00
2023-08-08T04:56:03.853Z,100920.56
2023-08-08T04:59:07.409Z,100924.66
2023-08-08T05:02:12.491Z,100914.63
2023-08-08T05:05:16.086Z,100922.31
2023-08-08T05:08:19.941Z,100916.88
2023-08-08T05:11:23.557Z,100925.03
2023-08-08T05:14:27.152Z,100918.84
2023-08-08T05:17:33.470Z,100921.28
2023-08-08T05:20:37.015Z,100926.28
2023-08-08T05:23:40.556Z,100918.81
2023-08-08T05:26:44.198Z,100911.69
2023-08-08T05:29:52.073Z,100923.44
2023-08-08T05:32:57.072Z,100910.91
2023-08-08T05:36:00.692Z,100904.06
2023-08-08T05:39:08.067Z,100912.28
2023-08-08T05:42:11.817Z,100915.75
2023-08-08T05:45:15.433Z,100912.13
2023-08-08T05:48:20.472Z,100914.28
2023-08-08T05:51:24.169Z,100910.06
2023-08-08T05:54:33.811Z,100900.78
2023-08-08T05:57:43.535Z,100909.28
2023-08-08T06:00:47.188Z,100904.38
2023-08-08T06:03:52.589Z,100907.91
2023-08-08T06:06:56.512Z,100906.09
2023-08-08T06:10:05.776Z,100908.88
2023-08-08T06:13:13.854Z,100904.38
2023-08-08T06:16:23.685Z,100895.41
2023-08-08T06:19:32.501Z,100905.66
2023-08-08T06:22:36.021Z,100897.38
2023-08-08T06:25:41.350Z,100897.72
2023-08-08T06:28:45.453Z,100894.72
2023-08-08T06:31:51.969Z,100887.88
2023-08-08T06:34:57.347Z,100883.94
2023-08-08T06:38:01.066Z,100880.28
2023-08-08T06:41:05.765Z,100884.41
2023-08-08T06:44:10.778Z,100887.06
2023-08-08T06:47:14.422Z,100896.03
2023-08-08T06:50:20.864Z,100883.06
2023-08-08T06:53:25.059Z,100887.78
2023-08-08T06:56:28.729Z,100883.66
2023-08-08T06:59:32.239Z,100883.56
2023-08-08T07:02:36.153Z,100873.31
2023-08-08T07:05:41.222Z,100879.00
2023-08-08T07:08:44.863Z,100862.91
2023-08-08T07:11:48.894Z,100863.94
2023-08-08T07:14:52.691Z,100861.06
2023-08-08T07:17:56.331Z,100857.94
2023-08-08T07:21:01.692Z,100868.09
2023-08-08T07:24:06.061Z,100853.09
2023-08-08T07:27:09.664Z,100845.84
2023-08-08T07:30:15.316Z,100847.91
2023-08-08T07:33:18.918Z,100849.44
2023-08-08T07:36:24.260Z,100832.13
2023-08-08T07:39:28.230Z,100832.81
2023-08-08T07:42:31.835Z,100839.84
2023-08-08T07:45:35.520Z,100846.91
2023-08-08T07:48:39.425Z,100854.53
2023-08-08T07:51:44.568Z,100861.75
2023-08-08T07:54:48.490Z,100866.06
2023-08-08T07:57:52.159Z,100868.56
2023-08-08T08:00:56.132Z,100867.00
2023-08-08T08:03:59.779Z,100866.53
2023-08-08T08:07:05.029Z,100869.94
2023-08-08T08:10:14.446Z,100873.47
2023-08-08T08:13:18.208Z,100858.66
2023-08-08T08:16:21.960Z,100846.69
2023-08-08T08:19:26.256Z,100849.38
2023-08-08T08:22:31.193Z,100834.81
2023-08-08T08:25:34.707Z,100842.25
2023-08-08T08:28:38.306Z,100834.50
2023-08-08T08:31:41.889Z,100842.84
2023-08-08T08:34:45.975Z,100832.81
2023-08-08T08:37:51.673Z,100832.00
2023-08-08T08:40:59.004Z,100831.16
2023-08-08T08:44:03.502Z,100821.59
2023-08-08T08:47:14.217Z,100818.41
2023-08-08T08:50:20.805Z,100813.94
2023-08-08T08:53:26.016Z,100820.56
2023-08-08T08:56:30.488Z,100813.84
2023-08-08T08:59:34.293Z,100805.06
2023-08-08T09:02:38.943Z,100799.19
2023-08-08T09:05:46.149Z,100798.72
2023-08-08T09:08:53.489Z,100811.69
2023-08-08T09:11:59.602Z,100802.91
2023-08-08T09:15:06.654Z,100812.63
2023-08-08T09:18:10.861Z,100809.28
2023-08-08T09:21:16.859Z,100810.66
2023-08-08T09:24:22.502Z,100801.94
2023-08-08T09:27:26.319Z,100786.34
2023-08-08T09:30:31.591Z,100775.03
2023-08-08T09:33:37.463Z,100782.25
2023-08-08T09:36:42.379Z,100776.53
2023-08-08T09:39:47.592Z,100784.19
2023-08-08T09:42:54.958Z,100791.53
2023-08-08T09:45:58.769Z,100773.94
2023-08-08T09:49:04.757Z,100786.03
2023-08-08T09:52:09.789Z,100790.44
2023-08-08T09:55:15.997Z,100785.03
2023-08-08T09:58:20.028Z,100779.41
2023-08-08T10:01:24.679Z,100778.66
2023-08-08T10:04:29.300Z,100771.34
2023-08-08T10:07:33.145Z,100791.16
2023-08-08T10:10:40.043Z,100798.81
2023-08-08T10:13:51.993Z,100819.47
2023-08-08T10:16:56.415Z,100821.09
2023-08-08T10:20:05.281Z,100828.00
2023-08-08T10:23:09.645Z,100818.16
2023-08-08T10:26:22.089Z,100802.19
2023-08-08T10:29:28.738Z,100798.91
2023-08-08T10:32:41.830Z,100808.47
2023-08-08T10:35:59.021Z,100790.72
2023-08-08T10:39:04.168Z,100793.22
2023-08-08T10:42:09.863Z,100774.38
2023-08-08T10:45:18.277Z,100785.00
2023-08-08T10:48:22.034Z,100772.47
2023-08-08T10:51:34.196Z,100765.44
2023-08-08T10:54:39.547Z,100766.44
2023-08-08T10:57:44.781Z,100757.19
2023-08-08T11:00:49.287Z,100773.47
2023-08-08T11:03:53.169Z,100779.38
2023-08-08T11:06:57.534Z,100791.88
2023-08-08T11:10:03.045Z,100791.50
2023-08-08T11:13:10.561Z,100803.50
2023-08-08T11:16:14.290Z,100794.53
2023-08-08T11:19:20.475Z,100796.84
2023-08-08T11:22:24.780Z,100802.47
2023-08-08T11:25:31.517Z,100797.41
2023-08-08T11:28:36.470Z,100815.84
2023-08-08T11:31:41.138Z,100829.97
2023-08-08T11:34:44.935Z,100839.81
2023-08-08T11:37:48.861Z,100833.94
2023-08-08T11:40:53.607Z,100829.75
2023-08-08T11:43:59.154Z,100819.97
2023-08-08T11:47:05.230Z,100816.03
2023-08-08T11:50:13.306Z,100813.75
2023-08-08T11:53:17.500Z,100806.50
2023-08-08T11:56:22.799Z,100819.63
2023-08-08T11:59:28.049Z,100850.53
2023-08-08T12:02:39.972Z,100883.13
2023-08-08T12:05:43.748Z,100888.56
2023-08-08T12:08:49.858Z,100901.69
2023-08-08T12:11:53.601Z,100882.56
2023-08-08T12:18:06.733Z,100857.59
2023-08-08T12:21:11.472Z,100851.63
2023-08-08T12:24:15.084Z,100852.00
2023-08-08T12:27:18.991Z,100843.16
2023-08-08T12:30:24.117Z,100854.72
2023-08-08T12:33:28.083Z,100849.66
2023-08-08T12:36:31.751Z,100852.28
2023-08-08T12:39:35.919Z,100847.53
2023-08-08T12:42:39.520Z,100825.97
2023-08-08T12:45:44.499Z,100822.97
2023-08-08T12:48:48.332Z,100824.59
2023-08-08T12:51:53.459Z,100815.91
2023-08-08T12:54:57.096Z,100818.28
2023-08-08T12:58:00.796Z,100818.44
2023-08-08T13:01:05.785Z,100811.75
2023-08-08T13:04:19.718Z,100802.38
2023-08-08T13:07:24.038Z,100799.19
2023-08-08T13:10:27.719Z,100793.88
2023-08-08T13:13:31.540Z,100798.25
2023-08-08T13:16:37.120Z,100795.97
2023-08-08T13:19:40.665Z,100791.19
2023-08-08T13:22:44.742Z,100792.72
2023-08-08T13:25:50.269Z,100806.16
2023-08-08T13:28:54.007Z,100800.78
2023-08-08T13:31:59.430Z,100802.00
2023-08-08T13:35:03.351Z,100807.91
2023-08-08T13:38:08.174Z,100792.53
2023-08-08T13:41:11.854Z,100804.66
2023-08-08T13:44:15.359Z,100800.03
2023-08-08T13:47:20.431Z,100797.19
2023-08-08T13:50:26.955Z,100808.78
2023-08-08T13:53:30.920Z,100810.19
2023-08-08T13:56:34.559Z,100806.31
2023-08-08T13:59:38.599Z,100804.91
2023-08-08T14:02:43.712Z,100818.31
2023-08-08T14:05:48.149Z,100811.94
2023-08-08T14:08:53.402Z,100814.84
2023-08-08T14:11:57.026Z,100819.47
2023-08-08T14:15:00.628Z,100826.75
2023-08-08T14:18:06.406Z,100834.41
2023-08-08T14:21:10.149Z,100828.25
2023-08-08T14:24:13.788Z,100822.56
2023-08-08T14:27:17.430Z,100818.56
2023-08-08T14:30:22.175Z,100810.00
2023-08-08T14:33:27.287Z,100834.91
2023-08-08T14:36:31.133Z,100831.63
2023-08-08T14:39:34.820Z,100841.41
2023-08-08T14:42:38.587Z,100845.38
2023-08-08T14:45:42.292Z,100843.59
2023-08-08T14:48:47.710Z,100837.38
2023-08-08T14:51:51.296Z,100853.47
2023-08-08T14:54:55.964Z,100860.13
2023-08-08T14:57:59.630Z,100859.06
2023-08-08T15:01:03.893Z,100859.53
2023-08-08T15:04:09.116Z,100865.91
2023-08-08T15:07:12.806Z,100859.88
2023-08-08T15:10:16.368Z,100869.41
2023-08-08T15:13:20.073Z,100881.44
2023-08-08T15:16:23.658Z,100881.34
2023-08-08T15:19:28.718Z,100881.94
2023-08-08T15:22:32.221Z,100875.41
2023-08-08T15:25:35.830Z,100876.91
2023-08-08T15:28:41.758Z,100872.94
2023-08-08T15:31:46.377Z,100873.19
2023-08-08T15:34:51.544Z,100874.53
2023-08-08T15:37:55.201Z,100871.84
2023-08-08T15:40:59.140Z,100872.22
2023-08-08T15:44:02.906Z,100860.50
2023-08-08T15:47:07.300Z,100875.19
2023-08-08T15:50:12.900Z,100874.31
2023-08-08T15:53:16.442Z,100877.84
2023-08-08T15:56:20.170Z,100874.59
2023-08-08T15:59:23.793Z,100878.94
2023-08-08T16:02:27.456Z,100871.03
2023-08-08T16:05:32.404Z,100882.38
2023-08-08T16:08:36.180Z,100879.03
2023-08-08T16:11:39.749Z,100871.91
2023-08-08T16:14:43.654Z,100888.72
2023-08-08T16:17:47.922Z,100892.25
2023-08-08T16:20:52.924Z,100890.66
2023-08-08T16:23:56.594Z,100898.88
2023-08-08T16:27:00.416Z,100901.44
2023-08-08T16:30:05.067Z,100901.06
2023-08-08T16:33:09.107Z,100897.47
2023-08-08T16:36:15.916Z,100915.84
2023-08-08T16:39:19.792Z,100915.81
2023-08-08T16:42:23.582Z,100913.03
2023-08-08T16:45:28.920Z,100912.66
2023-08-08T16:48:32.857Z,100920.50
2023-08-08T16:51:38.050Z,100932.94
2023-08-08T16:54:42.467Z,100925.63
2023-08-08T16:57:46.630Z,100934.88
2023-08-08T17:00:54.712Z,100938.56
2023-08-08T17:03:58.650Z,100933.94
2023-08-08T17:07:03.865Z,100925.78
2023-08-08T17:10:11.702Z,100933.94
2023-08-08T17:13:15.400Z,100924.72
2023-08-08T17:16:19.743Z,100931.84
2023-08-08T17:19:23.909Z,100934.56
2023-08-08T17:22:29.333Z,100931.63
2023-08-08T17:25:36.739Z,100930.41
2023-08-08T17:28:43.402Z,100931.88
2023-08-08T17:31:47.272Z,100933.09
2023-08-08T17:34:51.342Z,100930.72
2023-08-08T17:37:56.823Z,100938.00
2023-08-08T17:41:01.066Z,100938.44
2023-08-08T17:44:06.164Z,100940.78
2023-08-08T17:47:11.590Z,100923.44
2023-08-08T17:50:15.222Z,100929.25
2023-08-08T17:53:20.457Z,100935.25
2023-08-08T17:56:24.156Z,100933.03
2023-08-08T17:59:30.675Z,100949.69
2023-08-08T18:02:34.913Z,100955.91
2023-08-08T18:05:38.642Z,100947.53
2023-08-08T18:08:43.844Z,100947.88
2023-08-08T18:11:47.439Z,100941.88
2023-08-08T18:14:54.090Z,100951.00
2023-08-08T18:17:58.080Z,100945.97
2023-08-08T18:21:01.725Z,100952.03
2023-08-08T18:24:08.721Z,100951.44
2023-08-08T18:27:12.587Z,100960.19
2023-08-08T18:30:17.445Z,100963.13
2023-08-08T18:33:21.002Z,100960.06
2023-08-08T18:36:24.865Z,100960.66
2023-08-08T18:39:29.960Z,100965.06
2023-08-08T18:42:33.877Z,100966.19
2023-08-08T18:45:37.588Z,100968.47
2023-08-08T18:48:41.490Z,100968.91
2023-08-08T18:51:45.063Z,100969.84
2023-08-08T18:54:50.388Z,100969.28
2023-08-08T18:57:53.956Z,100967.81
2023-08-08T19:00:57.884Z,100977.22
2023-08-08T19:04:02.431Z,100967.31
2023-08-08T19:07:06.167Z,100971.84
2023-08-08T19:10:12.208Z,100975.09
2023-08-08T19:13:17.248Z,100974.00
2023-08-08T19:16:21.126Z,100975.31
2023-08-08T19:19:24.837Z,100978.97
2023-08-08T19:22:28.864Z,100965.00
2023-08-08T19:25:34.048Z,100980.19
2023-08-08T19:28:40.835Z,100975.41
2023-08-08T19:31:46.416Z,100980.09
2023-08-08T19:34:53.636Z,100978.09
2023-08-08T19:37:57.497Z,100978.94
2023-08-08T19:41:02.614Z,100981.22
2023-08-08T19:44:06.679Z,100979.59
2023-08-08T19:47:10.263Z,100974.97
2023-08-08T19:50:13.952Z,100981.44
2023-08-08T19:53:18.289Z,100983.44
2023-08-08T19:56:23.521Z,100994.56
2023-08-08T19:59:27.156Z,100988.59
2023-08-08T20:02:33.697Z,100989.84
2023-08-08T20:05:37.440Z,100981.00
2023-08-08T20:08:41.580Z,100991.81
2023-08-08T20:11:46.703Z,100991.81
2023-08-08T20:14:50.629Z,100996.44
2023-08-08T20:17:54.412Z,100991.94
2023-08-08T20:20:58.179Z,100983.25
2023-08-08T20:24:01.875Z,100996.56
2023-08-08T20:27:07.744Z,100985.25
2023-08-08T20:30:13.388Z,100994.19
2023-08-08T20:33:17.054Z,100991.69
2023-08-08T20:36:20.859Z,100997.28
2023-08-08T20:39:25.234Z,101001.69
2023-08-08T20:42:30.626Z,101007.75
2023-08-08T20:45:34.425Z,101009.22
2023-08-08T20:48:38.094Z,101005.19
2023-08-08T20:51:42.016Z,101008.94
2023-08-08T20:54:45.586Z,101014.34
2023-08-08T20:57:50.801Z,101017.78
2023-08-08T21:00:54.544Z,101012.75
2023-08-08T21:03:58.511Z,101025.28
2023-08-08T21:07:02.501Z,101016.56
2023-08-08T21:10:07.784Z,101018.41
2023-08-08T21:13:12.851Z,101027.91
2023-08-08T21:16:16.949Z,101022.03
2023-08-08T21:19:20.594Z,101027.22
2023-08-08T21:22:24.549Z,101032.63
2023-08-08T21:25:28.486Z,101022.28
2023-08-08T21:28:34.659Z,101028.47
2023-08-08T21:31:38.304Z,101041.81
2023-08-08T21:34:41.892Z,101038.63
2023-08-08T21:37:45.613Z,101037.66
2023-08-08T21:40:49.231Z,101035.63
2023-08-08T21:43:54.269Z,101038.19
2023-08-08T21:46:57.799Z,101037.56
2023-08-08T21:50:01.416Z,101028.22
2023-08-08T21:53:05.620Z,101024.69
2023-08-08T21:56:09.164Z,101021.00
2023-08-08T21:59:14.374Z,101017.69
2023-08-08T22:02:18.081Z,101017.69
2023-08-08T22:05:21.839Z,101013.53
2023-08-08T22:08:25.439Z,101011.09
2023-08-08T22:11:29.140Z,101020.88
2023-08-08T22:14:34.570Z,101005.97
2023-08-08T22:17:38.258Z,101013.84
2023-08-08T22:20:42.542Z,101013.03
2023-08-08T22:23:46.097Z,101007.06
2023-08-08T22:26:49.799Z,101006.13
2023-08-08T22:29:56.350Z,101004.47
2023-08-08T22:33:00.314Z,101005.28
2023-08-08T22:36:03.993Z,101014.09
2023-08-08T22:39:07.529Z,101007.06
2023-08-08T22:42:11.719Z,101015.09
2023-08-08T22:45:36.712Z,101020.34
2023-08-08T22:48:40.365Z,101023.97
2023-08-08T22:51:43.939Z,101015.47
2023-08-08T22:54:47.631Z,101026.78
2023-08-08T22:57:51.302Z,101028.00
2023-08-08T23:00:56.388Z,101032.28
2023-08-08T23:03:59.950Z,101025.34
2023-08-08T23:07:04.083Z,101026.47
2023-08-08T23:10:09.265Z,101024.84
2023-08-08T23:13:12.935Z,101025.88
2023-08-08T23:16:18.087Z,101029.53
2023-08-08T23:19:21.759Z,101034.13
2023-08-08T23:22:25.406Z,101031.28
2023-08-08T23:25:29.982Z,101035.75
2023-08-08T23:28:33.800Z,101034.03
2023-08-08T23:31:39.091Z,101036.78
2023-08-08T23:34:42.717Z,101035.25
2023-08-08T23:37:46.644Z,101039.72
2023-08-08T23:40:50.235Z,101032.88
2023-08-08T23:43:53.920Z,101038.19
2023-08-08T23:46:59.148Z,101033.00
2023-08-08T23:50:04.935Z,101032.13
2023-08-08T23:53:08.893Z,101036.47
2023-08-08T23:56:12.710Z,101041.91
2023-08-08T23:59:16.402Z,101046.44
